Accueil
METAR-TAF:

METAR-TAF

Aéroports :

Maastricht Aix-la-Chapelle, Pays-Bas

Aéroport de Maastricht-Aix-la-Chapelle

latitude: 50-55N, longitude: 005-47E, altitude: 114 m

Observation

Le bulletin a été fait il y a 34 minutes, à 10:25 UTC
Vent 16 kt de sud/sud-ouest
Température 11°C
Humidité 76%
Pression 1008 hPa
Visibilité 10 km ou plus

METAR: EHBK 221025Z AUTO 21016KT 9999 NSC 11/07 Q1008 NOSIG

Heure: 11:59 (10:59 UTC)

Prévision

Le bulletin a été fait il y a 5 heures et 49 minutes, à 05:10 UTC
Prévision valable du 22 à 06 UTC au 23 à 12 UTC
Vent 16 kt de sud/sud-ouest
Visibilité 10 km ou plus
Nuages épars à une hauteur de 3000 ft
Evoluant progressivement
du 23 à 05 UTC au 23 à 07 UTC
Vent 20 kt de sud/sud-ouest avec des rafales jusqu'à 30 kt

TAF: EHBK 220510Z 2206/2312 20016KT 9999 SCT030 BECMG 2305/2307 20020G30KT

Observations et prévisions météorologiques de plus de 4000 aéroports (messages METAR et TAF).

Les stations disponibles sont représentées par des disques jaunes et rouges sur la carte.

Passer la souris dessus pour voir le nom de la station.

Cliquer dessus pour voir les observations et prévisions météorologiques.

Pour changer de carte: cliquez sur les boutons verts avec une croix noire pour zoomer, sur le bouton vert avec un tiret pour effectuer un zoom arrière, ou sur les flèches vertes pour les cartes adjacentes.


METAR-TAF: